Aérodrome :
LOGIN :

S'inscrire | Disclaimer

   EN    FR    IT 

 










Légende :    VFR   VFR Marginal   IFR   IFR Intensif   IFR Très Intensif
Visi : 
Plafond : 
>= 8 km
>= 3000ft
5 à 8 km
1000 à 3000 ft
1500m à 5 km
500 à 1000 ft
800 à 1500m
200 à 500 ft
< 800m
< 200 ft
Symboles :   Orages  Brouillard  Fortes neiges  Fortes précipitations  Vent > 20 kt
SIGMETs :   Divers  Orages  Givrage  Turbulence  Onde Orograph.  Cendres Volcan.







- Altitude de l'aérodrome : 776 ft
- Code IATA : RMS


ETAR - Ramstein Air Base

DERNIER METAR :
  • 181656Z AUTO 04010KT 9999 CLR 17/04 A3025 RMK AO2 SLP251 T01650035 $

METARs EXPIRÉS :
  • 181556Z AUTO 04010KT 9999 CLR 18/03 A3025 RMK AO2 SLP249 T01780033 $
  • 181456Z AUTO 02009KT 9999 CLR 18/04 A3025 RMK AO2 SLP250 T01810036 $

TAF AMD TAF ETAR
Valide du 18 à 13h jusqu'au 19 à 16h UTC


181316Z 1813/1916 35009KT 9999 FEW040 QNH3024INS
BECMG 1816/1817 03006KT 9999 SCT050 QNH3028INS
BECMG 1904/1905 05009KT 9999 BKN030 QNH3036INS TX18/1814Z TN01/1905Z
Pas de NOTAMs connus pour ce terrain.



MET'MAP, la Météo Aéronautique d'un coup d'oeil ! - Copyright ORBIFLY Décembre 2007 - Disclaimer

ORBIFLY MET'MAP TEAM :

Programmation & Développement : Alexandra Zaïnal
Conception & Développement : Baudouin d'Aumeries
Co-Programmation & Développement : Marc-Olivier Méhu
Soutien technique & logistique : Manuel Goepfert

Contact : metmap@orbifly.com




SOURCES & CREDITS :

   NOAA